sensor_id;sensor_type;location;lat;lon;timestamp;pressure;altitude;pressure_sealevel;temperature
43802;BMP280;29429;51.074;13.764;2022-07-04T00:01:44;99906.22;;;21.90
43802;BMP280;29429;51.074;13.764;2022-07-04T00:04:11;99898.88;;;21.85
43802;BMP280;29429;51.074;13.764;2022-07-04T00:06:38;99912.19;;;21.76
43802;BMP280;29429;51.074;13.764;2022-07-04T00:09:05;99908.94;;;21.69
43802;BMP280;29429;51.074;13.764;2022-07-04T00:11:32;99913.03;;;21.72
43802;BMP280;29429;51.074;13.764;2022-07-04T00:13:59;99919.28;;;21.72
43802;BMP280;29429;51.074;13.764;2022-07-04T00:16:26;99918.44;;;21.72
43802;BMP280;29429;51.074;13.764;2022-07-04T00:18:53;99908.94;;;21.69
43802;BMP280;29429;51.074;13.764;2022-07-04T00:21:20;99918.19;;;21.63
43802;BMP280;29429;51.074;13.764;2022-07-04T00:23:47;99927.44;;;21.57
43802;BMP280;29429;51.074;13.764;2022-07-04T00:26:15;99925.78;;;21.56
43802;BMP280;29429;51.074;13.764;2022-07-04T00:28:42;99924.97;;;21.56
43802;BMP280;29429;51.074;13.764;2022-07-04T00:31:09;99926.34;;;21.53
43802;BMP280;29429;51.074;13.764;2022-07-04T00:33:36;99921.19;;;21.52
43802;BMP280;29429;51.074;13.764;2022-07-04T00:36:04;99916.56;;;21.47
43802;BMP280;29429;51.074;13.764;2022-07-04T00:38:32;99923.09;;;21.46
43802;BMP280;29429;51.074;13.764;2022-07-04T00:40:59;99931.22;;;21.46
43802;BMP280;29429;51.074;13.764;2022-07-04T00:43:28;99925.28;;;21.44
43802;BMP280;29429;51.074;13.764;2022-07-04T00:45:55;99925.81;;;21.41
43802;BMP280;29429;51.074;13.764;2022-07-04T00:48:22;99928.53;;;21.41
43802;BMP280;29429;51.074;13.764;2022-07-04T00:50:50;99932.84;;;21.37
43802;BMP280;29429;51.074;13.764;2022-07-04T00:53:21;99932.84;;;21.37
43802;BMP280;29429;51.074;13.764;2022-07-04T00:55:51;99928.78;;;21.35
43802;BMP280;29429;51.074;13.764;2022-07-04T00:58:23;99934.22;;;21.35
43802;BMP280;29429;51.074;13.764;2022-07-04T01:00:50;99944.81;;;21.31
43802;BMP280;29429;51.074;13.764;2022-07-04T01:03:17;99952.66;;;21.28
43802;BMP280;29429;51.074;13.764;2022-07-04T01:05:45;99963.78;;;21.26
43802;BMP280;29429;51.074;13.764;2022-07-04T01:08:13;99961.63;;;21.23
43802;BMP280;29429;51.074;13.764;2022-07-04T01:10:40;99972.47;;;21.28
43802;BMP280;29429;51.074;13.764;2022-07-04T01:13:07;99969.19;;;21.26
43802;BMP280;29429;51.074;13.764;2022-07-04T01:15:34;99974.91;;;21.30
43802;BMP280;29429;51.074;13.764;2022-07-04T01:18:01;99971.38;;;21.29
43802;BMP280;29429;51.074;13.764;2022-07-04T01:20:35;99975.72;;;21.30
43802;BMP280;29429;51.074;13.764;2022-07-04T01:23:03;99973.84;;;21.31
43802;BMP280;29429;51.074;13.764;2022-07-04T01:25:31;99987.13;;;21.32
43802;BMP280;29429;51.074;13.764;2022-07-04T01:27:59;99984.94;;;21.29
43802;BMP280;29429;51.074;13.764;2022-07-04T01:30:28;99981.69;;;21.27
43802;BMP280;29429;51.074;13.764;2022-07-04T01:32:56;99992.00;;;21.25
43802;BMP280;29429;51.074;13.764;2022-07-04T01:35:23;99990.13;;;21.26
43802;BMP280;29429;51.074;13.764;2022-07-04T01:37:51;100007.19;;;21.26
43802;BMP280;29429;51.074;13.764;2022-07-04T01:40:18;100005.56;;;21.25
43802;BMP280;29429;51.074;13.764;2022-07-04T01:42:45;100002.84;;;21.20
43802;BMP280;29429;51.074;13.764;2022-07-04T01:45:13;100005.03;;;21.18
43802;BMP280;29429;51.074;13.764;2022-07-04T01:47:40;100015.88;;;21.18
43802;BMP280;29429;51.074;13.764;2022-07-04T01:50:10;100018.59;;;21.18
43802;BMP280;29429;51.074;13.764;2022-07-04T01:52:41;100026.75;;;21.18
43802;BMP280;29429;51.074;13.764;2022-07-04T01:55:10;100034.28;;;21.11
43802;BMP280;29429;51.074;13.764;2022-07-04T01:57:38;100033.75;;;21.09
43802;BMP280;29429;51.074;13.764;2022-07-04T02:00:08;100044.59;;;21.09
43802;BMP280;29429;51.074;13.764;2022-07-04T02:02:56;100047.59;;;21.07
43802;BMP280;29429;51.074;13.764;2022-07-04T02:05:23;100046.78;;;21.07
43802;BMP280;29429;51.074;13.764;2022-07-04T02:07:51;100052.69;;;21.04
43802;BMP280;29429;51.074;13.764;2022-07-04T02:10:18;100046.97;;;21.00
43802;BMP280;29429;51.074;13.764;2022-07-04T02:12:45;100060.53;;;21.00
43802;BMP280;29429;51.074;13.764;2022-07-04T02:15:38;100061.88;;;20.98
43802;BMP280;29429;51.074;13.764;2022-07-04T02:18:07;100054.78;;;20.87
43802;BMP280;29429;51.074;13.764;2022-07-04T02:20:35;100056.94;;;20.85
43802;BMP280;29429;51.074;13.764;2022-07-04T02:23:05;100067.78;;;20.85
43802;BMP280;29429;51.074;13.764;2022-07-04T02:25:32;100071.03;;;20.82
43802;BMP280;29429;51.074;13.764;2022-07-04T02:27:59;100076.72;;;20.80
43802;BMP280;29429;51.074;13.764;2022-07-04T02:30:26;100084.84;;;20.75
43802;BMP280;29429;51.074;13.764;2022-07-04T02:32:53;100087.78;;;20.74
43802;BMP280;29429;51.074;13.764;2022-07-04T02:35:20;100078.56;;;20.70
43802;BMP280;29429;51.074;13.764;2022-07-04T02:37:47;100093.75;;;20.71
43802;BMP280;29429;51.074;13.764;2022-07-04T02:40:14;100098.63;;;20.69
43802;BMP280;29429;51.074;13.764;2022-07-04T02:42:41;100093.72;;;20.65
43802;BMP280;29429;51.074;13.764;2022-07-04T02:45:08;100094.78;;;20.59
43802;BMP280;29429;51.074;13.764;2022-07-04T02:47:35;100095.81;;;20.53
43802;BMP280;29429;51.074;13.764;2022-07-04T02:50:04;100102.84;;;20.54
43802;BMP280;29429;51.074;13.764;2022-07-04T02:52:31;100101.72;;;20.45
43802;BMP280;29429;51.074;13.764;2022-07-04T02:54:58;100104.44;;;20.45
43802;BMP280;29429;51.074;13.764;2022-07-04T02:57:25;100099.00;;;20.45
43802;BMP280;29429;51.074;13.764;2022-07-04T02:59:52;100105.78;;;20.43
43802;BMP280;29429;51.074;13.764;2022-07-04T03:02:19;100107.13;;;20.40
43802;BMP280;29429;51.074;13.764;2022-07-04T03:04:46;100112.53;;;20.40
43802;BMP280;29429;51.074;13.764;2022-07-04T03:07:13;100114.69;;;20.38
43802;BMP280;29429;51.074;13.764;2022-07-04T03:09:40;100120.13;;;20.38
43802;BMP280;29429;51.074;13.764;2022-07-04T03:12:07;100115.75;;;20.37
43802;BMP280;29429;51.074;13.764;2022-07-04T03:14:34;100119.81;;;20.35
43802;BMP280;29429;51.074;13.764;2022-07-04T03:17:02;100122.75;;;20.33
43802;BMP280;29429;51.074;13.764;2022-07-04T03:19:29;100126.25;;;20.29
43802;BMP280;29429;51.074;13.764;2022-07-04T03:21:56;100143.84;;;20.26
43802;BMP280;29429;51.074;13.764;2022-07-04T03:24:22;100137.28;;;20.22
43802;BMP280;29429;51.074;13.764;2022-07-04T03:26:49;100140.78;;;20.23
43802;BMP280;29429;51.074;13.764;2022-07-04T03:29:16;100134.00;;;20.20
43802;BMP280;29429;51.074;13.764;2022-07-04T03:31:43;100135.91;;;20.20
43802;BMP280;29429;51.074;13.764;2022-07-04T03:34:10;100140.59;;;20.24
43802;BMP280;29429;51.074;13.764;2022-07-04T03:36:37;100142.22;;;20.25
43802;BMP280;29429;51.074;13.764;2022-07-04T03:39:04;100146.47;;;20.21
43802;BMP280;29429;51.074;13.764;2022-07-04T03:41:31;100146.22;;;20.23
43802;BMP280;29429;51.074;13.764;2022-07-04T03:43:58;100157.38;;;20.26
43802;BMP280;29429;51.074;13.764;2022-07-04T03:46:25;100161.50;;;20.34
43802;BMP280;29429;51.074;13.764;2022-07-04T03:48:52;100165.59;;;20.36
43802;BMP280;29429;51.074;13.764;2022-07-04T03:51:20;100161.28;;;20.35
43802;BMP280;29429;51.074;13.764;2022-07-04T03:53:47;100163.97;;;20.35
43802;BMP280;29429;51.074;13.764;2022-07-04T03:56:14;100171.34;;;20.40
43802;BMP280;29429;51.074;13.764;2022-07-04T03:58:41;100162.13;;;20.41
43802;BMP280;29429;51.074;13.764;2022-07-04T04:01:18;100176.47;;;20.41
43802;BMP280;29429;51.074;13.764;2022-07-04T04:03:46;100176.25;;;20.43
43802;BMP280;29429;51.074;13.764;2022-07-04T04:06:31;100168.34;;;20.41
43802;BMP280;29429;51.074;13.764;2022-07-04T04:08:58;100180.00;;;20.42
43802;BMP280;29429;51.074;13.764;2022-07-04T04:11:25;100173.53;;;20.43
43802;BMP280;29429;51.074;13.764;2022-07-04T04:13:52;100165.91;;;20.40
43802;BMP280;29429;51.074;13.764;2022-07-04T04:16:19;100174.34;;;20.43
43802;BMP280;29429;51.074;13.764;2022-07-04T04:18:46;100176.47;;;20.41
43802;BMP280;29429;51.074;13.764;2022-07-04T04:21:13;100185.19;;;20.43
43802;BMP280;29429;51.074;13.764;2022-07-04T04:23:39;100176.75;;;20.40
43802;BMP280;29429;51.074;13.764;2022-07-04T04:26:06;100184.09;;;20.44
43802;BMP280;29429;51.074;13.764;2022-07-04T04:28:33;100183.03;;;20.45
43802;BMP280;29429;51.074;13.764;2022-07-04T04:31:00;100180.63;;;20.49
43802;BMP280;29429;51.074;13.764;2022-07-04T04:33:27;100185.22;;;20.48
43802;BMP280;29429;51.074;13.764;2022-07-04T04:35:54;100193.63;;;20.52
43802;BMP280;29429;51.074;13.764;2022-07-04T04:38:21;100196.34;;;20.52
43802;BMP280;29429;51.074;13.764;2022-07-04T04:40:48;100202.03;;;20.50
43802;BMP280;29429;51.074;13.764;2022-07-04T04:43:15;100193.09;;;20.50
43802;BMP280;29429;51.074;13.764;2022-07-04T04:45:42;100203.69;;;20.51
43802;BMP280;29429;51.074;13.764;2022-07-04T04:48:09;100206.16;;;20.58
43802;BMP280;29429;51.074;13.764;2022-07-04T04:50:36;100222.22;;;20.64
43802;BMP280;29429;51.074;13.764;2022-07-04T04:53:03;100224.66;;;20.66
43802;BMP280;29429;51.074;13.764;2022-07-04T04:55:30;100231.47;;;20.69
43802;BMP280;29429;51.074;13.764;2022-07-04T04:57:57;100230.38;;;20.64
43802;BMP280;29429;51.074;13.764;2022-07-04T05:00:24;100233.13;;;20.70
43802;BMP280;29429;51.074;13.764;2022-07-04T05:02:51;100244.50;;;20.72
43802;BMP280;29429;51.074;13.764;2022-07-04T05:05:19;100243.66;;;20.66
43802;BMP280;29429;51.074;13.764;2022-07-04T05:07:46;100239.22;;;20.55
43802;BMP280;29429;51.074;13.764;2022-07-04T05:10:13;100247.09;;;20.56
43802;BMP280;29429;51.074;13.764;2022-07-04T05:12:43;100251.44;;;20.57
43802;BMP280;29429;51.074;13.764;2022-07-04T05:15:10;100254.72;;;20.59
43802;BMP280;29429;51.074;13.764;2022-07-04T05:17:37;100259.84;;;20.56
43802;BMP280;29429;51.074;13.764;2022-07-04T05:20:05;100260.06;;;20.54
43802;BMP280;29429;51.074;13.764;2022-07-04T05:22:32;100252.75;;;20.55
43802;BMP280;29429;51.074;13.764;2022-07-04T05:24:59;100251.47;;;20.62
43802;BMP280;29429;51.074;13.764;2022-07-04T05:27:26;100259.88;;;20.61
43802;BMP280;29429;51.074;13.764;2022-07-04T05:29:53;100253.59;;;20.55
43802;BMP280;29429;51.074;13.764;2022-07-04T05:32:21;100256.75;;;20.47
43802;BMP280;29429;51.074;13.764;2022-07-04T05:34:48;100250.28;;;20.48
43802;BMP280;29429;51.074;13.764;2022-07-04T05:37:15;100256.31;;;20.55
43802;BMP280;29429;51.074;13.764;2022-07-04T05:39:42;100245.28;;;20.67
43802;BMP280;29429;51.074;13.764;2022-07-04T05:42:09;100247.78;;;20.74
43802;BMP280;29429;51.074;13.764;2022-07-04T05:44:36;100254.88;;;20.80
43802;BMP280;29429;51.074;13.764;2022-07-04T05:47:03;100261.38;;;20.79
43802;BMP280;29429;51.074;13.764;2022-07-04T05:49:29;100249.72;;;20.78
43802;BMP280;29429;51.074;13.764;2022-07-04T05:51:56;100259.78;;;20.83
43802;BMP280;29429;51.074;13.764;2022-07-04T05:54:23;100266.66;;;20.95
43802;BMP280;29429;51.074;13.764;2022-07-04T05:56:50;100264.25;;;20.99
43802;BMP280;29429;51.074;13.764;2022-07-04T06:01:45;100266.72;;;21.05
43802;BMP280;29429;51.074;13.764;2022-07-04T06:04:12;100262.22;;;21.16
43802;BMP280;29429;51.074;13.764;2022-07-04T06:06:39;100263.41;;;21.30
43802;BMP280;29429;51.074;13.764;2022-07-04T06:09:06;100261.84;;;21.39
43802;BMP280;29429;51.074;13.764;2022-07-04T06:11:33;100259.13;;;21.39
43802;BMP280;29429;51.074;13.764;2022-07-04T06:14:01;100271.63;;;21.45
43802;BMP280;29429;51.074;13.764;2022-07-04T06:16:28;100259.47;;;21.53
43802;BMP280;29429;51.074;13.764;2022-07-04T06:18:55;100264.69;;;21.64
43802;BMP280;29429;51.074;13.764;2022-07-04T06:21:22;100263.09;;;21.73
43802;BMP280;29429;51.074;13.764;2022-07-04T06:23:49;100268.28;;;21.85
43802;BMP280;29429;51.074;13.764;2022-07-04T06:26:16;100263.72;;;21.91
43802;BMP280;29429;51.074;13.764;2022-07-04T06:28:43;100258.91;;;22.03
43802;BMP280;29429;51.074;13.764;2022-07-04T06:31:13;100261.06;;;22.06
43802;BMP280;29429;51.074;13.764;2022-07-04T06:33:40;100258.34;;;22.11
43802;BMP280;29429;51.074;13.764;2022-07-04T06:36:25;100270.34;;;22.20
43802;BMP280;29429;51.074;13.764;2022-07-04T06:38:52;100278.00;;;22.33
43802;BMP280;29429;51.074;13.764;2022-07-04T06:41:19;100282.88;;;22.36
43802;BMP280;29429;51.074;13.764;2022-07-04T06:43:46;100275.25;;;22.33
43802;BMP280;29429;51.074;13.764;2022-07-04T06:46:13;100269.28;;;22.36
43802;BMP280;29429;51.074;13.764;2022-07-04T06:48:40;100255.16;;;22.39
43802;BMP280;29429;51.074;13.764;2022-07-04T06:51:07;100258.44;;;22.41
43802;BMP280;29429;51.074;13.764;2022-07-04T06:53:34;100261.16;;;22.51
43802;BMP280;29429;51.074;13.764;2022-07-04T06:56:01;100257.09;;;22.64
43802;BMP280;29429;51.074;13.764;2022-07-04T06:58:28;100263.94;;;22.76
43802;BMP280;29429;51.074;13.764;2022-07-04T07:00:54;100266.09;;;22.89
43802;BMP280;29429;51.074;13.764;2022-07-04T07:03:22;100262.84;;;22.97
43802;BMP280;29429;51.074;13.764;2022-07-04T07:05:48;100252.47;;;23.04
43802;BMP280;29429;51.074;13.764;2022-07-04T07:08:26;100252.75;;;23.08
43802;BMP280;29429;51.074;13.764;2022-07-04T07:10:57;100257.91;;;23.15
43802;BMP280;29429;51.074;13.764;2022-07-04T07:13:24;100260.63;;;23.20
43802;BMP280;29429;51.074;13.764;2022-07-04T07:15:51;100257.34;;;23.28
43802;BMP280;29429;51.074;13.764;2022-07-04T07:18:18;100246.44;;;23.28
43802;BMP280;29429;51.074;13.764;2022-07-04T07:20:45;100248.09;;;23.29
43802;BMP280;29429;51.074;13.764;2022-07-04T07:23:12;100252.97;;;23.32
43802;BMP280;29429;51.074;13.764;2022-07-04T07:25:40;100256.78;;;23.41
43802;BMP280;29429;51.074;13.764;2022-07-04T07:28:07;100254.31;;;23.49
43802;BMP280;29429;51.074;13.764;2022-07-04T07:30:34;100257.28;;;23.58
43802;BMP280;29429;51.074;13.764;2022-07-04T07:33:01;100252.34;;;23.65
43802;BMP280;29429;51.074;13.764;2022-07-04T07:35:28;100255.84;;;23.76
43802;BMP280;29429;51.074;13.764;2022-07-04T07:37:54;100252.81;;;23.87
43802;BMP280;29429;51.074;13.764;2022-07-04T07:40:22;100256.88;;;23.90
43802;BMP280;29429;51.074;13.764;2022-07-04T07:42:49;100253.91;;;23.86
43802;BMP280;29429;51.074;13.764;2022-07-04T07:45:16;100251.47;;;23.85
43802;BMP280;29429;51.074;13.764;2022-07-04T07:47:43;100246.25;;;23.93
43802;BMP280;29429;51.074;13.764;2022-07-04T07:50:10;100238.00;;;24.03
43802;BMP280;29429;51.074;13.764;2022-07-04T07:52:37;100243.47;;;24.03
43802;BMP280;29429;51.074;13.764;2022-07-04T07:55:05;100241.28;;;24.05
43802;BMP280;29429;51.074;13.764;2022-07-04T07:57:33;100247.25;;;24.07
43802;BMP280;29429;51.074;13.764;2022-07-04T08:00:00;100240.19;;;24.01
43802;BMP280;29429;51.074;13.764;2022-07-04T08:02:27;100236.38;;;24.02
43802;BMP280;29429;51.074;13.764;2022-07-04T08:05:12;100244.28;;;24.04
43802;BMP280;29429;51.074;13.764;2022-07-04T08:07:39;100238.00;;;24.08
43802;BMP280;29429;51.074;13.764;2022-07-04T08:10:07;100246.69;;;24.15
43802;BMP280;29429;51.074;13.764;2022-07-04T08:12:35;100252.06;;;24.26
43802;BMP280;29429;51.074;13.764;2022-07-04T08:15:03;100240.91;;;24.27
43802;BMP280;29429;51.074;13.764;2022-07-04T08:17:34;100230.03;;;24.22
43802;BMP280;29429;51.074;13.764;2022-07-04T08:20:03;100237.84;;;24.34
43802;BMP280;29429;51.074;13.764;2022-07-04T08:22:30;100236.94;;;24.48
43802;BMP280;29429;51.074;13.764;2022-07-04T08:24:56;100235.25;;;24.52
43802;BMP280;29429;51.074;13.764;2022-07-04T08:27:23;100235.97;;;24.63
43802;BMP280;29429;51.074;13.764;2022-07-04T08:29:58;100232.66;;;24.71
43802;BMP280;29429;51.074;13.764;2022-07-04T08:32:25;100235.69;;;24.69
43802;BMP280;29429;51.074;13.764;2022-07-04T08:34:52;100234.25;;;24.77
43802;BMP280;29429;51.074;13.764;2022-07-04T08:37:21;100219.13;;;24.90
43802;BMP280;29429;51.074;13.764;2022-07-04T08:39:48;100233.50;;;25.00
43802;BMP280;29429;51.074;13.764;2022-07-04T08:42:20;100230.16;;;25.08
43802;BMP280;29429;51.074;13.764;2022-07-04T08:44:51;100225.22;;;25.10
43802;BMP280;29429;51.074;13.764;2022-07-04T08:47:24;100222.41;;;25.20
43802;BMP280;29429;51.074;13.764;2022-07-04T08:50:11;100215.94;;;25.35
43802;BMP280;29429;51.074;13.764;2022-07-04T08:52:41;100222.94;;;25.46
43802;BMP280;29429;51.074;13.764;2022-07-04T08:55:12;100220.38;;;25.55
43802;BMP280;29429;51.074;13.764;2022-07-04T08:57:58;100224.66;;;25.61
43802;BMP280;29429;51.074;13.764;2022-07-04T09:00:44;100221.94;;;25.61
43802;BMP280;29429;51.074;13.764;2022-07-04T09:03:11;100222.34;;;25.73
43802;BMP280;29429;51.074;13.764;2022-07-04T09:05:38;100221.75;;;25.76
43802;BMP280;29429;51.074;13.764;2022-07-04T09:08:06;100225.34;;;25.71
43802;BMP280;29429;51.074;13.764;2022-07-04T09:10:33;100223.50;;;25.67
43802;BMP280;29429;51.074;13.764;2022-07-04T09:13:04;100219.75;;;25.63
43802;BMP280;29429;51.074;13.764;2022-07-04T09:15:42;100220.25;;;25.65
43802;BMP280;29429;51.074;13.764;2022-07-04T09:18:36;100215.00;;;25.68
43802;BMP280;29429;51.074;13.764;2022-07-04T09:21:08;100220.63;;;25.77
43802;BMP280;29429;51.074;13.764;2022-07-04T09:23:41;100215.69;;;25.79
43802;BMP280;29429;51.074;13.764;2022-07-04T09:26:21;100203.00;;;25.88
43802;BMP280;29429;51.074;13.764;2022-07-04T09:28:57;100207.28;;;25.94
43802;BMP280;29429;51.074;13.764;2022-07-04T09:31:27;100208.56;;;26.01
43802;BMP280;29429;51.074;13.764;2022-07-04T09:33:59;100206.03;;;26.05
43802;BMP280;29429;51.074;13.764;2022-07-04T09:36:30;100207.59;;;26.11
43802;BMP280;29429;51.074;13.764;2022-07-04T09:39:14;100213.75;;;26.22
43802;BMP280;29429;51.074;13.764;2022-07-04T09:42:02;100214.94;;;26.34
43802;BMP280;29429;51.074;13.764;2022-07-04T09:44:44;100215.78;;;26.48
43802;BMP280;29429;51.074;13.764;2022-07-04T09:47:28;100209.13;;;26.54
43802;BMP280;29429;51.074;13.764;2022-07-04T09:50:22;100204.25;;;26.51
43802;BMP280;29429;51.074;13.764;2022-07-04T09:52:57;100208.72;;;26.61
43802;BMP280;29429;51.074;13.764;2022-07-04T09:58:03;100207.94;;;26.93
43802;BMP280;29429;51.074;13.764;2022-07-04T10:00:35;100211.72;;;26.97
43802;BMP280;29429;51.074;13.764;2022-07-04T10:03:23;100209.09;;;27.05
43802;BMP280;29429;51.074;13.764;2022-07-04T10:06:06;100193.88;;;27.13
43802;BMP280;29429;51.074;13.764;2022-07-04T10:08:34;100190.94;;;27.23
43802;BMP280;29429;51.074;13.764;2022-07-04T10:11:04;100199.16;;;27.23
43802;BMP280;29429;51.074;13.764;2022-07-04T10:13:36;100194.47;;;27.10
43802;BMP280;29429;51.074;13.764;2022-07-04T10:16:04;100195.81;;;27.12
43802;BMP280;29429;51.074;13.764;2022-07-04T10:18:31;100186.88;;;27.07
43802;BMP280;29429;51.074;13.764;2022-07-04T10:20:58;100172.88;;;26.95
43802;BMP280;29429;51.074;13.764;2022-07-04T10:23:25;100176.94;;;27.11
43802;BMP280;29429;51.074;13.764;2022-07-04T10:25:58;100176.63;;;27.26
43802;BMP280;29429;51.074;13.764;2022-07-04T10:28:26;100180.38;;;27.30
43802;BMP280;29429;51.074;13.764;2022-07-04T10:30:56;100169.84;;;27.24
43802;BMP280;29429;51.074;13.764;2022-07-04T10:33:27;100168.19;;;27.36
43802;BMP280;29429;51.074;13.764;2022-07-04T10:35:55;100169.69;;;27.69
43802;BMP280;29429;51.074;13.764;2022-07-04T10:38:31;100163.91;;;27.85
43802;BMP280;29429;51.074;13.764;2022-07-04T10:41:08;100161.28;;;27.79
43802;BMP280;29429;51.074;13.764;2022-07-04T10:43:36;100162.72;;;27.77
43802;BMP280;29429;51.074;13.764;2022-07-04T10:48:49;100166.69;;;27.57
43802;BMP280;29429;51.074;13.764;2022-07-04T10:54:07;100165.75;;;27.62
43802;BMP280;29429;51.074;13.764;2022-07-04T10:59:27;100155.31;;;27.37
43802;BMP280;29429;51.074;13.764;2022-07-04T11:05:04;100155.41;;;27.18
43802;BMP280;29429;51.074;13.764;2022-07-04T11:18:11;100136.03;;;27.28
43802;BMP280;29429;51.074;13.764;2022-07-04T11:20:45;100146.28;;;27.50
43802;BMP280;29429;51.074;13.764;2022-07-04T11:23:17;100140.47;;;27.65
43802;BMP280;29429;51.074;13.764;2022-07-04T11:25:48;100136.31;;;27.54
43802;BMP280;29429;51.074;13.764;2022-07-04T11:28:27;100141.28;;;27.65
43802;BMP280;29429;51.074;13.764;2022-07-04T11:31:12;100130.31;;;27.65
43802;BMP280;29429;51.074;13.764;2022-07-04T11:33:42;100133.41;;;27.86
43802;BMP280;29429;51.074;13.764;2022-07-04T11:44:20;100136.72;;;28.32
43802;BMP280;29429;51.074;13.764;2022-07-04T11:47:09;100145.66;;;28.38
43802;BMP280;29429;51.074;13.764;2022-07-04T11:52:13;100134.53;;;28.21
43802;BMP280;29429;51.074;13.764;2022-07-04T11:54:43;100128.22;;;28.20
43802;BMP280;29429;51.074;13.764;2022-07-04T11:57:32;100130.41;;;28.32
43802;BMP280;29429;51.074;13.764;2022-07-04T12:00:08;100128.53;;;28.41
43802;BMP280;29429;51.074;13.764;2022-07-04T12:02:44;100125.66;;;28.46
43802;BMP280;29429;51.074;13.764;2022-07-04T12:05:13;100138.63;;;28.54
43802;BMP280;29429;51.074;13.764;2022-07-04T12:07:44;100135.03;;;28.67
43802;BMP280;29429;51.074;13.764;2022-07-04T12:10:31;100131.25;;;28.85
43802;BMP280;29429;51.074;13.764;2022-07-04T12:13:05;100132.47;;;29.19
43802;BMP280;29429;51.074;13.764;2022-07-04T12:15:43;100124.19;;;29.41
43802;BMP280;29429;51.074;13.764;2022-07-04T12:18:24;100118.69;;;29.58
43802;BMP280;29429;51.074;13.764;2022-07-04T12:20:53;100119.50;;;29.58
43802;BMP280;29429;51.074;13.764;2022-07-04T12:23:22;100107.06;;;29.61
43802;BMP280;29429;51.074;13.764;2022-07-04T12:25:50;100105.94;;;29.62
43802;BMP280;29429;51.074;13.764;2022-07-04T12:28:19;100109.50;;;29.63
43802;BMP280;29429;51.074;13.764;2022-07-04T12:30:58;100110.59;;;29.53
43802;BMP280;29429;51.074;13.764;2022-07-04T12:33:28;100121.56;;;29.44
43802;BMP280;29429;51.074;13.764;2022-07-04T12:36:00;100110.28;;;29.46
43802;BMP280;29429;51.074;13.764;2022-07-04T12:41:01;100099.94;;;29.69
43802;BMP280;29429;51.074;13.764;2022-07-04T12:48:53;100103.31;;;29.48
43802;BMP280;29429;51.074;13.764;2022-07-04T12:51:23;100106.09;;;29.57
43802;BMP280;29429;51.074;13.764;2022-07-04T12:53:54;100109.78;;;29.52
43802;BMP280;29429;51.074;13.764;2022-07-04T12:56:33;100094.22;;;29.39
43802;BMP280;29429;51.074;13.764;2022-07-04T12:59:09;100116.06;;;29.27
43802;BMP280;29429;51.074;13.764;2022-07-04T13:01:41;100104.50;;;29.17
43802;BMP280;29429;51.074;13.764;2022-07-04T13:04:09;100105.41;;;28.95
43802;BMP280;29429;51.074;13.764;2022-07-04T13:06:36;100103.44;;;28.87
43802;BMP280;29429;51.074;13.764;2022-07-04T13:09:05;100099.72;;;28.91
43802;BMP280;29429;51.074;13.764;2022-07-04T13:11:35;100110.19;;;28.81
43802;BMP280;29429;51.074;13.764;2022-07-04T13:14:20;100110.19;;;28.72
43802;BMP280;29429;51.074;13.764;2022-07-04T13:16:47;100113.78;;;28.59
43802;BMP280;29429;51.074;13.764;2022-07-04T13:19:14;100117.31;;;28.51
43802;BMP280;29429;51.074;13.764;2022-07-04T13:21:43;100108.38;;;28.46
43802;BMP280;29429;51.074;13.764;2022-07-04T13:24:11;100116.00;;;28.26
43802;BMP280;29429;51.074;13.764;2022-07-04T13:26:39;100100.22;;;28.10
43802;BMP280;29429;51.074;13.764;2022-07-04T13:29:07;100102.34;;;28.13
43802;BMP280;29429;51.074;13.764;2022-07-04T13:31:38;100109.97;;;28.16
43802;BMP280;29429;51.074;13.764;2022-07-04T13:34:06;100109.63;;;28.17
43802;BMP280;29429;51.074;13.764;2022-07-04T13:36:33;100106.28;;;28.20
43802;BMP280;29429;51.074;13.764;2022-07-04T13:38:59;100102.72;;;28.20
43802;BMP280;29429;51.074;13.764;2022-07-04T13:41:33;100102.41;;;28.21
43802;BMP280;29429;51.074;13.764;2022-07-04T13:44:03;100104.84;;;28.23
43802;BMP280;29429;51.074;13.764;2022-07-04T13:46:31;100098.03;;;28.20
43802;BMP280;29429;51.074;13.764;2022-07-04T13:49:06;100091.63;;;28.25
43802;BMP280;29429;51.074;13.764;2022-07-04T13:51:42;100097.69;;;28.35
43802;BMP280;29429;51.074;13.764;2022-07-04T13:54:10;100093.97;;;28.40
43802;BMP280;29429;51.074;13.764;2022-07-04T13:56:37;100097.22;;;28.42
43802;BMP280;29429;51.074;13.764;2022-07-04T13:59:04;100089.72;;;28.34
43802;BMP280;29429;51.074;13.764;2022-07-04T14:01:31;100088.75;;;28.30
43802;BMP280;29429;51.074;13.764;2022-07-04T14:03:58;100089.38;;;28.27
43802;BMP280;29429;51.074;13.764;2022-07-04T14:06:25;100089.19;;;28.23
43802;BMP280;29429;51.074;13.764;2022-07-04T14:08:52;100085.81;;;28.26
43802;BMP280;29429;51.074;13.764;2022-07-04T14:11:20;100083.00;;;28.18
43802;BMP280;29429;51.074;13.764;2022-07-04T14:13:47;100082.53;;;28.16
43802;BMP280;29429;51.074;13.764;2022-07-04T14:16:15;100075.22;;;28.11
43802;BMP280;29429;51.074;13.764;2022-07-04T14:18:42;100077.53;;;28.18
43802;BMP280;29429;51.074;13.764;2022-07-04T14:21:08;100073.97;;;28.17
43802;BMP280;29429;51.074;13.764;2022-07-04T14:23:35;100066.41;;;28.23
43802;BMP280;29429;51.074;13.764;2022-07-04T14:26:12;100079.09;;;28.32
43802;BMP280;29429;51.074;13.764;2022-07-04T14:28:39;100077.78;;;28.30
43802;BMP280;29429;51.074;13.764;2022-07-04T14:31:06;100071.63;;;28.33
43802;BMP280;29429;51.074;13.764;2022-07-04T14:33:34;100071.75;;;28.28
43802;BMP280;29429;51.074;13.764;2022-07-04T14:36:03;100070.47;;;28.25
43802;BMP280;29429;51.074;13.764;2022-07-04T14:38:31;100062.69;;;28.19
43802;BMP280;29429;51.074;13.764;2022-07-04T14:40:57;100053.16;;;28.16
43802;BMP280;29429;51.074;13.764;2022-07-04T14:43:42;100049.53;;;28.07
43802;BMP280;29429;51.074;13.764;2022-07-04T14:46:10;100050.47;;;28.03